Disclaimer

    

CYCD

METAR CYCD 222300Z 12004KT 060V160 30SM SCT050 OVC200 19/09 A3017 RMK SC3CS5 SLP221 DENSITY ALT 400FT=

METAR CYCD 222200Z 12005KT 030V160 30SM FEW050 BKN270 20/08 A3019 RMK CU2CI5 SLP224 DENSITY ALT 400FT=

METAR CYCD 222100Z 06005KT 030V100 30SM FEW050 BKN270 20/08 A3021 RMK CU1CI5 SLP231 DENSITY ALT 400FT=

TAF CYCD 222340Z 2300/2304 VRB03KT P6SM SCT050 BKN200FM230200 VRB03KT P6SM BKN150RMK NXT FCST BY 231500Z

CYVR

METAR CYVR 222300Z 24005KT 30SM FEW050 SCT210 BKN240 19/10 A3018 RMK CU1CI2CS3 SLP222 DENSITY ALT 300FT=

METAR CYVR 222200Z 23007KT 200V300 30SM FEW050 SCT210 BKN240 18/10 A3020 RMK CU1CI2CS3 SLP229 DENSITY ALT 100FT=

METAR CYVR 222100Z 22008KT 30SM FEW050 FEW210 BKN240 16/10 A3022 RMK CU1CI2CS4 CU TR SLP236=

TAF CYVR 222340Z 2300/2406 22006KT P6SM FEW050 SCT200 BKN240FM230300 13006KT P6SM SCT080 BKN160 TEMPO 2305/2308 BKN080OVC160FM230800 10006KT P6SM BKN080FM231500 25008KT P6SM BKN050FM240000 24010KT P6SM FEW050RMK NXT FCST BY 230300Z

CYXX

METAR CYXX 222300Z 23010KT 220V290 25SM FEW065 SCT240 BKN260 20/06 A3018 RMK CU1CI4CI3 CU TR SLP222 DENSITY ALT 600FT=

METAR CYXX 222200Z 23007KT 190V260 30SM FEW062TCU SCT240 BKN260 20/09 A3019 RMK TCU1CI3CI4 TCU TR CU ASOCTD SLP226 DENSITY ALT 600FT=

METAR CYXX 222100Z 25008KT 180V270 30SM FEW070TCU FEW240 BKN260 20/08 A3020 RMK TCU1CS2CI5 TCU TR CU ASOCTD SLP230 DENSITY ALT 500FT=

TAF CYXX 222340Z 2300/2324 23008KT P6SM FEW060 BKN240FM230500 VRB03KT P6SM SCT040 BKN070FM231600 20010KT P6SM BKN040RMK NXT FCST BY 230600Z=

Supplemental information

Lower mainland ATIS: 1-877-517-2847

CZBB (Boundary Bay) current winds

Upper winds (Vancouver)

Data fromValid at300060009000
22120022180099009900+041806-04
22120023000022051806+042011-03
22120023120024132208+002216-05

NOTAMs

On October 10, 2019, NAV CANADA changed to the ICAO NOTAM format. They are now available only through Collaborative Flight Planning Services (CFPS) (plan.navcanada.ca). I'm working to update this site to pull in the relevant NOTAMs in the new format.